createdAt,value
2023-02-22T00:00:52.991Z,100328.22
2023-02-22T00:03:56.250Z,100333.69
2023-02-22T00:07:01.295Z,100334.69
2023-02-22T00:10:04.847Z,100315.19
2023-02-22T00:13:09.735Z,100324.84
2023-02-22T00:16:16.342Z,100316.84
2023-02-22T00:19:19.311Z,100328.63
2023-02-22T00:22:23.366Z,100322.41
2023-02-22T00:25:26.572Z,100321.56
2023-02-22T00:28:30.722Z,100318.06
2023-02-22T00:31:39.263Z,100315.47
2023-02-22T00:34:43.650Z,100312.84
2023-02-22T00:37:49.682Z,100316.50
2023-02-22T00:40:52.697Z,100317.34
2023-02-22T00:43:55.367Z,100313.78
2023-02-22T00:46:58.046Z,100312.84
2023-02-22T00:50:02.097Z,100310.06
2023-02-22T00:53:07.322Z,100308.22
2023-02-22T00:56:10.050Z,100302.03
2023-02-22T00:59:12.747Z,100312.53
2023-02-22T01:02:15.601Z,100306.25
2023-02-22T01:05:21.239Z,100301.69
2023-02-22T01:08:25.851Z,100301.66
2023-02-22T01:11:28.534Z,100268.00
2023-02-22T01:14:31.293Z,100298.91
2023-02-22T01:17:33.986Z,100294.50
2023-02-22T01:20:37.006Z,100289.09
2023-02-22T01:23:41.144Z,100288.28
2023-02-22T01:26:45.452Z,100282.09
2023-02-22T01:29:50.245Z,100282.09
2023-02-22T01:32:53.365Z,100280.22
2023-02-22T01:35:56.081Z,100279.31
2023-02-22T01:39:00.105Z,100271.34
2023-02-22T01:42:03.738Z,100279.44
2023-02-22T01:45:43.111Z,100267.91
2023-02-22T01:48:49.171Z,100266.94
2023-02-22T01:51:55.969Z,100266.00
2023-02-22T01:55:02.013Z,100278.50
2023-02-22T01:58:06.353Z,100266.78
2023-02-22T02:01:10.718Z,100256.75
2023-02-22T02:04:17.226Z,100256.06
2023-02-22T02:07:22.915Z,100251.59
2023-02-22T02:10:26.956Z,100245.31
2023-02-22T02:13:30.047Z,100247.91
2023-02-22T02:16:42.713Z,100250.47
2023-02-22T02:19:54.320Z,100237.75
2023-02-22T02:23:06.305Z,100242.91
2023-02-22T02:26:30.164Z,100237.31
2023-02-22T02:30:20.625Z,100230.03
2023-02-22T02:33:32.295Z,100233.38
2023-02-22T02:36:57.840Z,100232.41
2023-02-22T02:40:11.405Z,100232.19
2023-02-22T02:43:22.653Z,100222.34
2023-02-22T02:46:30.829Z,100221.22
2023-02-22T02:49:38.718Z,100223.94
2023-02-22T02:52:42.952Z,100214.00
2023-02-22T02:55:45.615Z,100211.06
2023-02-22T02:58:52.824Z,100212.69
2023-02-22T03:02:17.882Z,100212.66
2023-02-22T03:05:40.970Z,100208.38
2023-02-22T03:08:46.641Z,100203.09
2023-02-22T03:12:02.105Z,100205.88
2023-02-22T03:15:15.045Z,100192.75
2023-02-22T03:18:25.854Z,100191.88
2023-02-22T03:21:35.515Z,100185.78
2023-02-22T03:24:44.900Z,100176.84
2023-02-22T03:27:50.800Z,100184.81
2023-02-22T03:30:58.452Z,100188.69
2023-02-22T03:34:07.368Z,100184.31
2023-02-22T03:37:17.790Z,100176.22
2023-02-22T03:40:26.867Z,100166.97
2023-02-22T03:43:33.877Z,100170.31
2023-02-22T03:46:40.221Z,100175.78
2023-02-22T03:49:50.716Z,100170.75
2023-02-22T03:52:54.903Z,100172.50
2023-02-22T03:56:00.679Z,100170.88
2023-02-22T03:59:05.164Z,100166.09
2023-02-22T04:02:08.007Z,100146.13
2023-02-22T04:05:10.746Z,100169.22
2023-02-22T04:08:15.007Z,100168.19
2023-02-22T04:11:18.062Z,100174.72
2023-02-22T04:14:23.184Z,100171.88
2023-02-22T04:17:26.554Z,100172.88
2023-02-22T04:20:29.281Z,100168.13
2023-02-22T04:23:33.280Z,100161.06
2023-02-22T04:26:35.991Z,100161.75
2023-02-22T04:29:38.690Z,100166.50
2023-02-22T04:32:41.354Z,100157.47
2023-02-22T04:35:44.132Z,100167.50
2023-02-22T04:38:48.444Z,100160.72
2023-02-22T04:41:51.147Z,100156.41
2023-02-22T04:44:54.688Z,100165.38
2023-02-22T04:47:57.394Z,100156.72
2023-02-22T04:51:00.131Z,100161.84
2023-02-22T04:54:05.491Z,100161.75
2023-02-22T04:57:08.174Z,100153.75
2023-02-22T05:00:11.760Z,100154.78
2023-02-22T05:03:14.443Z,100157.72
2023-02-22T05:06:18.726Z,100145.19
2023-02-22T05:09:22.846Z,100143.13
2023-02-22T05:12:28.399Z,100150.38
2023-02-22T05:15:31.024Z,100146.81
2023-02-22T05:18:33.687Z,100151.44
2023-02-22T05:21:36.331Z,100153.50
2023-02-22T05:24:40.449Z,100154.22
2023-02-22T05:27:43.140Z,100146.78
2023-02-22T05:30:46.036Z,100142.25
2023-02-22T05:33:49.272Z,100141.34
2023-02-22T05:36:52.285Z,100135.88
2023-02-22T05:39:56.736Z,100139.59
2023-02-22T05:43:00.782Z,100133.19
2023-02-22T05:46:03.804Z,100134.03
2023-02-22T05:49:06.666Z,100134.13
2023-02-22T05:52:09.320Z,100134.13
2023-02-22T05:55:15.858Z,100128.84
2023-02-22T05:58:18.903Z,100134.06
2023-02-22T06:01:22.622Z,100131.34
2023-02-22T06:04:26.037Z,100127.81
2023-02-22T06:07:28.703Z,100137.31
2023-02-22T06:10:32.958Z,100137.44
2023-02-22T06:13:35.682Z,100145.50
2023-02-22T06:16:38.375Z,100142.75
2023-02-22T06:19:41.374Z,100143.66
2023-02-22T06:22:45.658Z,100148.13
2023-02-22T06:25:49.830Z,100138.09
2023-02-22T06:28:52.522Z,100136.38
2023-02-22T06:31:55.615Z,100145.44
2023-02-22T06:34:59.076Z,100116.00
2023-02-22T06:38:01.801Z,100146.00
2023-02-22T06:41:06.135Z,100146.00
2023-02-22T06:44:10.727Z,100131.00
2023-02-22T06:47:13.440Z,100148.84
2023-02-22T06:50:23.455Z,100152.16
2023-02-22T06:53:26.227Z,100137.03
2023-02-22T06:56:30.264Z,100152.00
2023-02-22T06:59:32.884Z,100154.50
2023-02-22T07:02:35.763Z,100162.56
2023-02-22T07:05:38.633Z,100157.88
2023-02-22T07:08:41.508Z,100163.16
2023-02-22T07:11:45.702Z,100164.69
2023-02-22T07:14:48.427Z,100160.09
2023-02-22T07:17:51.271Z,100165.22
2023-02-22T07:20:54.292Z,100152.41
2023-02-22T07:23:58.936Z,100166.00
2023-02-22T07:27:03.422Z,100161.59
2023-02-22T07:30:07.726Z,100162.47
2023-02-22T07:33:13.180Z,100167.38
2023-02-22T07:36:17.905Z,100165.53
2023-02-22T07:39:20.708Z,100168.97
2023-02-22T07:42:25.193Z,100172.63
2023-02-22T07:45:29.975Z,100175.41
2023-02-22T07:48:33.251Z,100175.84
2023-02-22T07:51:35.922Z,100171.16
2023-02-22T07:54:38.672Z,100170.47
2023-02-22T07:57:42.704Z,100161.00
2023-02-22T08:00:47.350Z,100168.22
2023-02-22T08:03:50.254Z,100164.41
2023-02-22T08:06:52.968Z,100156.28
2023-02-22T08:09:55.728Z,100161.41
2023-02-22T08:13:00.049Z,100157.63
2023-02-22T08:16:04.633Z,100155.69
2023-02-22T08:19:07.332Z,100159.13
2023-02-22T08:22:10.008Z,100149.88
2023-02-22T08:25:13.271Z,100156.94
2023-02-22T08:28:19.997Z,100152.19
2023-02-22T08:31:22.776Z,100150.94
2023-02-22T08:34:25.835Z,100149.75
2023-02-22T08:37:28.709Z,100151.47
2023-02-22T08:40:34.586Z,100145.19
2023-02-22T08:43:39.218Z,100136.91
2023-02-22T08:46:42.050Z,100140.16
2023-02-22T08:49:44.827Z,100136.00
2023-02-22T08:52:47.714Z,100134.50
2023-02-22T08:55:50.994Z,100125.59
2023-02-22T08:58:55.982Z,100123.34
2023-02-22T09:01:59.001Z,100131.25
2023-02-22T09:05:02.036Z,100128.16
2023-02-22T09:08:05.626Z,100126.84
2023-02-22T09:11:08.519Z,100126.94
2023-02-22T09:14:15.205Z,100129.78
2023-02-22T09:17:18.169Z,100125.31
2023-02-22T09:20:23.503Z,100116.19
2023-02-22T09:23:27.350Z,100126.09
2023-02-22T09:26:30.167Z,100132.38
2023-02-22T09:29:34.291Z,100129.78
2023-02-22T09:32:37.787Z,100124.75
2023-02-22T09:35:42.758Z,100117.34
2023-02-22T09:38:46.486Z,100120.56
2023-02-22T09:41:56.095Z,100108.31
2023-02-22T09:45:12.843Z,100103.34
2023-02-22T09:48:22.027Z,100106.75
2023-02-22T09:51:28.485Z,100099.72
2023-02-22T09:54:36.556Z,100104.78
2023-02-22T09:57:43.023Z,100095.44
2023-02-22T10:00:51.548Z,100093.53
2023-02-22T10:04:01.242Z,100093.84
2023-02-22T10:07:11.150Z,100086.41
2023-02-22T10:10:18.380Z,100082.66
2023-02-22T10:13:29.905Z,100085.44
2023-02-22T10:16:41.467Z,100080.97
2023-02-22T10:19:57.650Z,100069.28
2023-02-22T10:23:12.056Z,100082.84
2023-02-22T10:26:18.152Z,100075.41
2023-02-22T10:29:28.572Z,100083.16
2023-02-22T10:32:43.380Z,100079.72
2023-02-22T10:35:47.272Z,100063.06
2023-02-22T10:38:55.746Z,100068.34
2023-02-22T10:42:05.875Z,100065.56
2023-02-22T10:45:22.499Z,100066.47
2023-02-22T10:48:28.538Z,100055.50
2023-02-22T10:51:31.937Z,100058.34
2023-02-22T10:54:37.700Z,100053.19
2023-02-22T10:57:42.304Z,100044.03
2023-02-22T11:00:46.657Z,100055.16
2023-02-22T11:04:04.071Z,100047.34
2023-02-22T11:07:12.310Z,100046.34
2023-02-22T11:10:38.649Z,100045.97
2023-02-22T11:13:42.274Z,100042.31
2023-02-22T11:16:51.482Z,100043.19
2023-02-22T11:19:56.052Z,100041.03
2023-02-22T11:23:02.201Z,100036.38
2023-02-22T11:26:10.027Z,100032.13
2023-02-22T11:29:19.705Z,100018.13
2023-02-22T11:32:24.493Z,99995.09
2023-02-22T11:35:39.012Z,100019.44
2023-02-22T11:38:55.198Z,100013.16
2023-02-22T11:41:57.940Z,100008.88
2023-02-22T11:45:11.215Z,100005.69
2023-02-22T11:48:23.241Z,99999.72
2023-02-22T11:51:44.977Z,99986.25
2023-02-22T11:55:32.616Z,99985.09
2023-02-22T11:58:46.552Z,99978.53
2023-02-22T12:01:54.943Z,99985.47
2023-02-22T12:05:27.334Z,99977.06
2023-02-22T12:08:43.592Z,99965.22
2023-02-22T12:11:57.299Z,99957.66
2023-02-22T12:15:07.808Z,99960.75
2023-02-22T12:18:20.733Z,99963.63
2023-02-22T12:21:26.310Z,99965.25
2023-02-22T12:24:37.351Z,99965.25
2023-02-22T12:27:45.036Z,99952.50
2023-02-22T12:30:53.832Z,99952.34
2023-02-22T12:34:07.721Z,99951.78
2023-02-22T12:37:17.791Z,99945.19
2023-02-22T12:40:27.960Z,99926.94
2023-02-22T12:43:34.740Z,99932.63
2023-02-22T12:46:41.905Z,99931.97
2023-02-22T12:49:49.612Z,99924.34
2023-02-22T12:52:57.811Z,99924.81
2023-02-22T12:56:15.946Z,99912.22
2023-02-22T12:59:25.951Z,99919.47
2023-02-22T13:02:32.432Z,99921.53
2023-02-22T13:05:39.516Z,99915.22
2023-02-22T13:08:55.420Z,99903.75
2023-02-22T13:12:08.099Z,99909.50
2023-02-22T13:15:19.909Z,99892.13
2023-02-22T13:18:32.534Z,99904.91
2023-02-22T13:21:45.059Z,99903.72
2023-02-22T13:25:02.215Z,99895.31
2023-02-22T13:28:23.529Z,99891.56
2023-02-22T13:31:45.752Z,99890.94
2023-02-22T13:35:20.357Z,99885.72
2023-02-22T13:38:50.928Z,99860.59
2023-02-22T13:42:05.981Z,99876.63
2023-02-22T13:45:46.422Z,99869.44
2023-02-22T13:49:21.449Z,99865.25
2023-02-22T13:52:27.545Z,99870.31
2023-02-22T13:55:34.571Z,99869.78
2023-02-22T13:58:49.024Z,99858.94
2023-02-22T14:01:54.940Z,99864.16
2023-02-22T14:04:57.876Z,99864.97
2023-02-22T14:08:00.585Z,99868.72
2023-02-22T14:11:05.886Z,99858.28
2023-02-22T14:14:17.787Z,99867.31
2023-02-22T14:17:30.105Z,99853.19
2023-02-22T14:20:36.243Z,99845.06
2023-02-22T14:23:40.815Z,99837.94
2023-02-22T14:26:56.336Z,99848.19
2023-02-22T14:30:00.611Z,99842.03
2023-02-22T14:33:25.273Z,99830.09
2023-02-22T14:36:34.301Z,99835.03
2023-02-22T14:39:41.517Z,99833.22
2023-02-22T14:42:49.995Z,99840.47
2023-02-22T14:45:55.921Z,99816.84
2023-02-22T14:49:04.224Z,99829.59
2023-02-22T14:52:19.058Z,99827.44
2023-02-22T14:55:24.821Z,99825.41
2023-02-22T14:58:35.394Z,99821.03
2023-02-22T15:01:50.906Z,99813.34
2023-02-22T15:05:00.404Z,99821.25
2023-02-22T15:08:07.611Z,99828.69
2023-02-22T15:11:22.072Z,99824.13
2023-02-22T15:14:27.138Z,99831.09
2023-02-22T15:17:29.893Z,99825.59
2023-02-22T15:20:36.209Z,99821.91
2023-02-22T15:23:45.150Z,99833.56
2023-02-22T15:27:00.616Z,99819.97
2023-02-22T15:30:07.578Z,99823.75
2023-02-22T15:33:16.377Z,99820.44
2023-02-22T15:36:23.049Z,99831.69
2023-02-22T15:39:29.508Z,99822.75
2023-02-22T15:42:32.231Z,99822.81
2023-02-22T15:45:35.322Z,99797.03
2023-02-22T15:48:41.301Z,99820.56
2023-02-22T15:51:49.075Z,99820.22
2023-02-22T15:54:53.519Z,99830.75
2023-02-22T15:57:59.088Z,99824.72
2023-02-22T16:01:03.719Z,99796.19
2023-02-22T16:04:06.935Z,99832.66
2023-02-22T16:07:17.752Z,99833.09
2023-02-22T16:10:24.501Z,99826.19
2023-02-22T16:13:36.093Z,99827.94
2023-02-22T16:16:41.591Z,99831.78
2023-02-22T16:19:45.265Z,99833.00
2023-02-22T16:22:51.036Z,99829.69
2023-02-22T16:26:07.055Z,99828.28
2023-02-22T16:29:11.095Z,99836.94
2023-02-22T16:32:15.518Z,99826.81
2023-02-22T16:35:19.015Z,99838.38
2023-02-22T16:38:23.200Z,99842.31
2023-02-22T16:41:26.151Z,99843.34
2023-02-22T16:44:29.743Z,99842.00
2023-02-22T16:47:32.430Z,99846.34
2023-02-22T16:50:35.129Z,99850.16
2023-02-22T16:53:39.315Z,99854.06
2023-02-22T16:56:42.456Z,99852.31
2023-02-22T16:59:47.757Z,99859.22
2023-02-22T17:02:50.528Z,99854.00
2023-02-22T17:05:53.835Z,99842.44
2023-02-22T17:08:57.935Z,99862.69
2023-02-22T17:12:00.991Z,99860.13
2023-02-22T17:15:04.512Z,99865.94
2023-02-22T17:18:16.336Z,99866.59
2023-02-22T17:21:19.262Z,99857.09
2023-02-22T17:24:29.178Z,99866.31
2023-02-22T17:27:32.407Z,99874.06
2023-02-22T17:30:36.323Z,99880.16
2023-02-22T17:33:39.060Z,99885.88
2023-02-22T17:36:42.072Z,99890.84
2023-02-22T17:39:46.570Z,99896.81
2023-02-22T17:42:54.587Z,99903.59
2023-02-22T17:45:58.179Z,99901.34
2023-02-22T17:49:02.139Z,99901.66
2023-02-22T17:52:07.414Z,99903.03
2023-02-22T17:55:13.122Z,99909.63
2023-02-22T17:58:16.583Z,99909.81
2023-02-22T18:01:27.344Z,99898.41
2023-02-22T18:04:30.048Z,99902.13
2023-02-22T18:07:32.809Z,99903.38
2023-02-22T18:10:37.624Z,99898.06
2023-02-22T18:13:40.574Z,99911.56
2023-02-22T18:16:43.280Z,99909.19
2023-02-22T18:19:46.065Z,99912.16
2023-02-22T18:22:48.975Z,99921.22
2023-02-22T18:26:09.071Z,99925.03
2023-02-22T18:29:13.014Z,99921.63
2023-02-22T18:32:15.844Z,99924.47
2023-02-22T18:35:18.654Z,99919.22
2023-02-22T18:38:24.229Z,99917.53
2023-02-22T18:41:28.848Z,99914.84
2023-02-22T18:44:32.386Z,99914.84
2023-02-22T18:47:40.886Z,99912.94
2023-02-22T18:50:43.558Z,99918.31
2023-02-22T18:53:47.731Z,99917.44
2023-02-22T18:56:51.896Z,99917.94
2023-02-22T18:59:54.992Z,99922.41
2023-02-22T19:02:58.308Z,99918.06
2023-02-22T19:06:02.993Z,99923.53
2023-02-22T19:09:08.678Z,99898.63
2023-02-22T19:12:12.836Z,99919.69
2023-02-22T19:15:15.944Z,99916.91
2023-02-22T19:18:20.612Z,99916.69
2023-02-22T19:21:24.170Z,99926.56
2023-02-22T19:24:26.838Z,99913.28
2023-02-22T19:27:31.370Z,99922.16
2023-02-22T19:30:34.081Z,99916.91
2023-02-22T19:33:37.034Z,99916.16
2023-02-22T19:36:41.313Z,99915.38
2023-02-22T19:39:44.232Z,99920.06
2023-02-22T19:42:48.448Z,99916.44
2023-02-22T19:45:51.216Z,99913.66
2023-02-22T19:48:55.286Z,99910.91
2023-02-22T19:51:58.314Z,99916.16
2023-02-22T19:55:01.173Z,99922.44
2023-02-22T19:58:05.258Z,99918.06
2023-02-22T20:01:14.331Z,99920.63
2023-02-22T20:04:21.319Z,99925.13
2023-02-22T20:07:24.233Z,99926.16
2023-02-22T20:10:27.078Z,99925.63
2023-02-22T20:13:31.898Z,99932.75
2023-02-22T20:16:35.654Z,99936.25
2023-02-22T20:19:40.681Z,99940.97
2023-02-22T20:22:44.514Z,99946.38
2023-02-22T20:25:53.685Z,99917.34
2023-02-22T20:28:58.417Z,99942.81
2023-02-22T20:32:02.862Z,99938.28
2023-02-22T20:35:07.114Z,99946.50
2023-02-22T20:38:11.572Z,99943.81
2023-02-22T20:41:16.974Z,99946.44
2023-02-22T20:44:22.159Z,99945.63
2023-02-22T20:47:25.004Z,99948.25
2023-02-22T20:50:27.685Z,99948.16
2023-02-22T20:53:30.394Z,99948.06
2023-02-22T20:56:34.166Z,99949.75
2023-02-22T20:59:38.206Z,99956.97
2023-02-22T21:02:40.911Z,99954.28
2023-02-22T21:05:44.401Z,99950.69
2023-02-22T21:08:51.291Z,99957.91
2023-02-22T21:11:54.024Z,99891.19
2023-02-22T21:14:58.084Z,99950.03
2023-02-22T21:18:02.202Z,99960.00
2023-02-22T21:21:10.089Z,99960.00
2023-02-22T21:24:13.700Z,99942.56
2023-02-22T21:27:17.045Z,99962.13
2023-02-22T21:30:21.378Z,99957.69
2023-02-22T21:33:24.036Z,99963.22
2023-02-22T21:36:27.797Z,99960.63
2023-02-22T21:39:30.476Z,99959.81
2023-02-22T21:42:33.287Z,99963.53
2023-02-22T21:45:37.499Z,99962.66
2023-02-22T21:48:44.873Z,99953.63
2023-02-22T21:51:47.555Z,99958.25
2023-02-22T21:54:50.259Z,99956.50
2023-02-22T21:57:53.027Z,99953.78
2023-02-22T22:00:59.434Z,99959.69
2023-02-22T22:04:05.103Z,99946.81
2023-02-22T22:07:08.106Z,99960.38
2023-02-22T22:10:17.014Z,99968.69
2023-02-22T22:13:19.968Z,99958.97
2023-02-22T22:16:26.384Z,99959.03
2023-02-22T22:19:31.714Z,99953.78
2023-02-22T22:22:34.422Z,99955.66
2023-02-22T22:25:38.145Z,99952.03
2023-02-22T22:28:43.779Z,99949.44
2023-02-22T22:31:48.698Z,99943.59
2023-02-22T22:34:51.805Z,99945.72
2023-02-22T22:37:54.562Z,99940.44
2023-02-22T22:41:01.042Z,99945.19
2023-02-22T22:44:06.159Z,99945.38
2023-02-22T22:47:12.207Z,99951.75
2023-02-22T22:50:15.635Z,99954.88
2023-02-22T22:53:18.725Z,99966.25
2023-02-22T22:56:26.789Z,99962.34
2023-02-22T22:59:29.548Z,99966.41
2023-02-22T23:02:33.672Z,99963.28
2023-02-22T23:05:38.238Z,99962.91
2023-02-22T23:08:43.933Z,99957.91
2023-02-22T23:11:50.716Z,99956.66
2023-02-22T23:14:55.212Z,99957.69
2023-02-22T23:17:59.454Z,99958.59
2023-02-22T23:21:05.504Z,99965.63
2023-02-22T23:24:08.495Z,99963.66
2023-02-22T23:27:12.288Z,99955.59
2023-02-22T23:30:18.622Z,99961.50
2023-02-22T23:33:22.998Z,99963.38
2023-02-22T23:36:26.679Z,99957.16
2023-02-22T23:39:29.444Z,99958.00
2023-02-22T23:42:32.113Z,99935.38
2023-02-22T23:45:38.565Z,99966.25
2023-02-22T23:48:46.689Z,99954.72
2023-02-22T23:51:49.801Z,99958.25
2023-02-22T23:54:53.946Z,99963.69
2023-02-22T23:57:59.415Z,99957.31
